createdAt,value
2018-08-21T04:04:19.186Z,3.50
2018-08-21T04:06:48.050Z,3.50
2018-08-21T04:09:16.920Z,4.40
2018-08-21T04:11:44.978Z,3.93
2018-08-21T04:14:12.792Z,3.50
2018-08-21T04:16:40.873Z,3.57
2018-08-21T04:19:10.458Z,3.60
2018-08-21T04:21:38.780Z,2.80
2018-08-21T04:24:07.497Z,3.50
2018-08-21T04:26:35.379Z,3.00
2018-08-21T04:29:04.176Z,3.30
2018-08-21T04:31:32.150Z,3.97
2018-08-21T04:34:01.290Z,3.33
2018-08-21T04:36:29.220Z,3.77
2018-08-21T04:38:57.899Z,3.77
2018-08-21T04:41:25.756Z,3.30
2018-08-21T04:43:53.834Z,3.80
2018-08-21T04:46:22.359Z,3.00
2018-08-21T04:48:50.475Z,4.90
2018-08-21T04:51:19.281Z,3.10
2018-08-21T04:53:47.210Z,3.50
2018-08-21T04:56:15.970Z,3.70
2018-08-21T04:58:45.313Z,2.80
2018-08-21T05:01:12.798Z,3.80
2018-08-21T05:03:40.586Z,3.47
2018-08-21T05:06:08.541Z,3.73
2018-08-21T05:08:36.622Z,3.40
2018-08-21T05:11:07.969Z,3.03
2018-08-21T05:13:35.535Z,3.23
2018-08-21T05:16:03.600Z,3.63
2018-08-21T05:18:31.470Z,3.00
2018-08-21T05:21:00.257Z,2.13
2018-08-21T05:23:28.289Z,3.27
2018-08-21T05:25:57.753Z,3.00
2018-08-21T05:28:26.389Z,2.70
2018-08-21T05:30:59.111Z,2.70
2018-08-21T05:33:27.170Z,2.80
2018-08-21T05:35:56.447Z,2.73
2018-08-21T05:38:25.894Z,2.80
2018-08-21T05:40:54.639Z,2.10
2018-08-21T05:43:23.582Z,2.53
2018-08-21T05:45:51.525Z,2.67
2018-08-21T05:48:20.480Z,3.10
2018-08-21T05:50:48.762Z,3.07
2018-08-21T05:53:17.383Z,2.30
2018-08-21T05:55:48.963Z,2.07
2018-08-21T05:58:18.306Z,2.20
2018-08-21T06:00:46.187Z,2.87
2018-08-21T06:03:14.115Z,2.20
2018-08-21T06:05:42.406Z,2.43
2018-08-21T06:08:11.527Z,2.80
2018-08-21T06:10:39.664Z,2.33
2018-08-21T06:13:08.647Z,2.27
2018-08-21T06:15:39.434Z,2.27
2018-08-21T06:18:11.510Z,1.77
2018-08-21T06:20:41.262Z,1.80
2018-08-21T06:23:11.624Z,1.53
2018-08-21T06:25:39.803Z,2.00
2018-08-21T06:28:08.408Z,1.53
2018-08-21T06:30:37.542Z,1.93
2018-08-21T06:33:06.362Z,1.67
2018-08-21T06:35:35.396Z,2.10
2018-08-21T06:38:03.391Z,1.60
2018-08-21T06:40:33.351Z,1.80
2018-08-21T06:43:01.635Z,1.40
2018-08-21T06:45:30.194Z,1.30
2018-08-21T06:47:58.495Z,1.87
2018-08-21T06:50:26.498Z,1.50
2018-08-21T06:52:54.588Z,1.90
2018-08-21T06:55:22.414Z,1.20
2018-08-21T06:57:50.436Z,1.30
2018-08-21T07:00:19.481Z,1.30
2018-08-21T07:02:47.231Z,1.40
2018-08-21T07:05:16.439Z,1.37
2018-08-21T07:07:44.367Z,1.50
2018-08-21T07:10:13.560Z,1.20
2018-08-21T07:12:42.570Z,1.50
2018-08-21T07:15:11.334Z,2.57
2018-08-21T07:17:44.980Z,1.60
2018-08-21T07:20:12.994Z,1.37
2018-08-21T07:22:40.899Z,1.33
2018-08-21T07:25:08.950Z,0.97
2018-08-21T07:27:37.998Z,1.17
2018-08-21T07:30:06.173Z,1.70
2018-08-21T07:32:35.214Z,1.40
2018-08-21T07:35:03.937Z,1.60
2018-08-21T07:37:33.955Z,1.60
2018-08-21T07:40:02.021Z,1.27
2018-08-21T07:42:30.946Z,2.50
2018-08-21T07:44:58.886Z,1.30
2018-08-21T07:47:32.317Z,1.50
2018-08-21T07:50:00.842Z,1.73
2018-08-21T07:52:28.542Z,1.33
2018-08-21T07:54:56.526Z,1.60
2018-08-21T07:57:25.158Z,1.23
2018-08-21T07:59:53.771Z,1.30
2018-08-21T08:02:22.265Z,1.17
2018-08-21T08:04:50.244Z,1.43
2018-08-21T08:07:27.550Z,1.50
2018-08-21T08:09:55.555Z,1.53
2018-08-21T08:12:23.346Z,1.53
2018-08-21T08:14:50.971Z,1.40
2018-08-21T08:17:18.838Z,1.40
2018-08-21T08:19:48.110Z,1.40
2018-08-21T08:22:20.991Z,1.17
2018-08-21T08:24:53.943Z,1.37
2018-08-21T08:27:24.021Z,1.20
2018-08-21T08:29:51.749Z,1.50
2018-08-21T08:32:19.531Z,1.30
2018-08-21T08:34:47.436Z,1.20
2018-08-21T08:37:16.944Z,1.77
2018-08-21T08:39:45.287Z,1.23
2018-08-21T08:42:13.147Z,1.10
2018-08-21T08:44:40.986Z,1.40
2018-08-21T08:47:11.775Z,1.40
2018-08-21T08:49:44.842Z,1.40
2018-08-21T08:52:17.355Z,1.33
2018-08-21T08:54:45.615Z,1.20
2018-08-21T08:57:13.667Z,1.00
2018-08-21T08:59:41.589Z,1.30
2018-08-21T09:02:10.599Z,1.67
2018-08-21T09:04:38.422Z,1.10
2018-08-21T09:07:06.261Z,1.23
2018-08-21T09:09:34.147Z,1.53
2018-08-21T09:12:02.046Z,1.20
2018-08-21T09:14:34.929Z,1.40
2018-08-21T09:17:23.218Z,1.70
2018-08-21T09:19:57.673Z,1.17
2018-08-21T09:22:25.879Z,1.20
2018-08-21T09:24:55.557Z,1.33
2018-08-21T09:27:26.410Z,1.30
2018-08-21T09:29:54.547Z,1.80
2018-08-21T09:32:22.398Z,2.70
2018-08-21T09:34:56.246Z,1.87
2018-08-21T09:37:24.623Z,1.33
2018-08-21T09:39:53.516Z,1.60
2018-08-21T09:42:21.336Z,1.37
2018-08-21T09:44:49.668Z,1.93
2018-08-21T09:47:19.353Z,1.93
2018-08-21T09:49:51.517Z,1.40
2018-08-21T09:52:19.443Z,1.53
2018-08-21T09:54:52.807Z,1.83
2018-08-21T09:57:22.755Z,1.77
2018-08-21T09:59:50.715Z,1.77
2018-08-21T10:02:23.939Z,1.70
2018-08-21T10:04:57.070Z,1.40
2018-08-21T10:07:25.074Z,1.90
2018-08-21T10:09:53.352Z,1.40
2018-08-21T10:12:21.870Z,1.90
2018-08-21T10:14:50.610Z,1.33
2018-08-21T10:17:18.601Z,1.30
2018-08-21T10:19:46.844Z,1.50
2018-08-21T10:22:15.139Z,1.43
2018-08-21T10:24:43.739Z,1.70
2018-08-21T10:27:11.738Z,1.53
2018-08-21T10:29:39.713Z,1.30
2018-08-21T10:32:07.556Z,1.73
2018-08-21T10:34:39.874Z,1.50
2018-08-21T10:37:09.224Z,1.23
2018-08-21T10:39:36.965Z,1.03
2018-08-21T10:42:04.770Z,1.10
2018-08-21T10:44:32.657Z,1.37
2018-08-21T10:47:00.460Z,1.47
2018-08-21T10:49:28.370Z,1.87
2018-08-21T10:51:56.390Z,1.27
2018-08-21T10:54:24.379Z,1.60
2018-08-21T10:56:52.337Z,1.10
2018-08-21T10:59:20.268Z,1.47
2018-08-21T11:01:48.117Z,1.23
2018-08-21T11:04:16.010Z,1.50
2018-08-21T11:06:45.002Z,1.30
2018-08-21T11:09:12.740Z,1.40
2018-08-21T11:11:41.103Z,1.37
2018-08-21T11:14:10.381Z,1.47
2018-08-21T11:16:38.212Z,1.00
2018-08-21T11:19:06.984Z,1.57
2018-08-21T11:21:35.280Z,1.60
2018-08-21T11:24:03.097Z,1.17
2018-08-21T11:26:31.418Z,1.30
2018-08-21T11:28:59.642Z,1.57
2018-08-21T11:31:27.962Z,1.40
2018-08-21T11:33:55.950Z,1.37
2018-08-21T11:36:24.358Z,1.33
2018-08-21T11:38:52.707Z,1.50
2018-08-21T11:41:20.874Z,1.70
2018-08-21T11:43:50.368Z,1.63
2018-08-21T11:46:18.903Z,2.57
2018-08-21T11:48:46.876Z,1.70
2018-08-21T11:51:14.996Z,1.20
2018-08-21T11:53:43.770Z,1.50
2018-08-21T11:56:11.708Z,1.43
2018-08-21T11:58:39.651Z,1.27
2018-08-21T12:01:08.147Z,1.20
2018-08-21T12:03:36.807Z,1.60
2018-08-21T12:06:04.827Z,1.60
2018-08-21T12:08:32.901Z,1.30
2018-08-21T12:11:01.584Z,1.53
2018-08-21T12:13:29.242Z,1.50
2018-08-21T12:15:57.202Z,1.30
2018-08-21T12:18:25.654Z,1.40
2018-08-21T12:20:53.581Z,1.27
2018-08-21T12:23:21.569Z,1.67
2018-08-21T12:25:49.409Z,1.60
2018-08-21T12:28:18.147Z,1.50
2018-08-21T12:30:46.678Z,1.60
2018-08-21T12:33:14.998Z,1.40
2018-08-21T12:35:43.323Z,1.50
2018-08-21T12:38:11.158Z,1.40
2018-08-21T12:40:39.251Z,1.57
2018-08-21T12:43:07.549Z,1.90
2018-08-21T12:45:35.433Z,1.57
2018-08-21T12:48:03.439Z,1.83
2018-08-21T12:50:32.096Z,1.60
2018-08-21T12:53:00.271Z,1.73
2018-08-21T12:55:28.192Z,1.67
2018-08-21T12:57:56.180Z,1.73
2018-08-21T13:00:24.219Z,1.30
2018-08-21T13:02:52.878Z,1.30
2018-08-21T13:05:20.933Z,1.70
2018-08-21T13:07:48.656Z,1.83
2018-08-21T13:10:16.472Z,1.87
2018-08-21T13:12:45.374Z,1.63
2018-08-21T13:15:13.912Z,1.73
2018-08-21T13:17:42.562Z,2.00
2018-08-21T13:20:11.104Z,1.57
2018-08-21T13:22:39.069Z,1.60
2018-08-21T13:25:07.593Z,1.60
2018-08-21T13:27:35.960Z,1.40
2018-08-21T13:30:03.912Z,1.57
2018-08-21T13:32:32.531Z,1.90
2018-08-21T13:35:00.362Z,1.60
2018-08-21T13:37:28.151Z,1.70
2018-08-21T13:39:56.004Z,1.40
2018-08-21T13:42:23.851Z,1.37
2018-08-21T13:44:52.655Z,1.53
2018-08-21T13:47:21.341Z,1.60
2018-08-21T13:49:49.868Z,1.40
2018-08-21T13:52:18.443Z,1.57
2018-08-21T13:54:47.768Z,1.43
2018-08-21T13:57:17.305Z,1.70
2018-08-21T13:59:45.763Z,1.90
2018-08-21T14:02:13.631Z,1.80
2018-08-21T14:04:41.387Z,1.70
2018-08-21T14:07:09.764Z,1.83
2018-08-21T14:09:37.552Z,1.80
2018-08-21T14:12:06.214Z,1.77
2018-08-21T14:14:33.908Z,1.40
2018-08-21T14:17:02.229Z,2.00
2018-08-21T14:19:31.434Z,2.10
2018-08-21T14:21:59.226Z,1.80
2018-08-21T14:24:27.222Z,1.67
2018-08-21T14:26:55.183Z,1.80
2018-08-21T14:29:23.006Z,1.60
2018-08-21T14:31:50.994Z,1.63
2018-08-21T14:34:19.572Z,1.73
2018-08-21T14:36:47.562Z,1.60
2018-08-21T14:39:15.454Z,1.70
2018-08-21T14:41:43.399Z,1.33
2018-08-21T14:44:12.050Z,1.73
2018-08-21T14:46:41.343Z,1.63
2018-08-21T14:49:09.239Z,1.40
2018-08-21T14:51:37.099Z,1.87
2018-08-21T14:54:05.491Z,1.60
2018-08-21T14:56:35.220Z,1.70
2018-08-21T14:59:02.991Z,1.70
2018-08-21T15:01:30.998Z,1.50
2018-08-21T15:03:59.548Z,1.23
2018-08-21T15:06:27.423Z,1.27
2018-08-21T15:08:55.579Z,1.60
2018-08-21T15:11:23.403Z,2.00
2018-08-21T15:13:51.750Z,1.70
2018-08-21T15:16:20.599Z,1.53
2018-08-21T15:18:48.301Z,1.67
2018-08-21T15:21:16.929Z,1.33
2018-08-21T15:23:44.850Z,1.33
2018-08-21T15:26:12.871Z,1.70
2018-08-21T15:28:40.844Z,1.27
2018-08-21T15:31:08.674Z,1.80
2018-08-21T15:33:36.513Z,1.90
2018-08-21T15:36:04.443Z,1.80
2018-08-21T15:38:32.299Z,1.47
2018-08-21T15:41:00.007Z,1.80
2018-08-21T15:43:27.946Z,1.80
2018-08-21T15:45:55.639Z,1.70
2018-08-21T15:48:23.688Z,1.50
2018-08-21T15:50:51.963Z,1.60
2018-08-21T15:53:19.987Z,1.63
2018-08-21T15:55:48.433Z,2.70
2018-08-21T15:58:16.509Z,1.70
2018-08-21T16:00:45.115Z,1.53
2018-08-21T16:03:13.154Z,1.50
2018-08-21T16:05:41.654Z,1.93
2018-08-21T16:08:10.280Z,1.40
2018-08-21T16:10:38.848Z,1.50
2018-08-21T16:13:06.705Z,1.90
2018-08-21T16:15:34.519Z,1.53
2018-08-21T16:18:03.118Z,1.30
2018-08-21T16:20:31.055Z,1.40
2018-08-21T16:22:58.943Z,1.30
2018-08-21T16:25:26.994Z,1.40
2018-08-21T16:27:55.582Z,1.33
2018-08-21T16:30:23.925Z,1.40
2018-08-21T16:32:52.788Z,1.70
2018-08-21T16:35:21.229Z,1.60
2018-08-21T16:37:48.916Z,1.40
2018-08-21T16:40:17.113Z,1.33
2018-08-21T16:42:44.847Z,1.40
2018-08-21T16:45:12.945Z,1.30
2018-08-21T16:47:41.474Z,1.40
2018-08-21T16:50:09.418Z,1.33
2018-08-21T16:52:37.352Z,1.40
2018-08-21T16:55:05.174Z,1.30
2018-08-21T16:57:33.741Z,1.90
2018-08-21T17:00:01.572Z,1.80
2018-08-21T17:02:29.366Z,1.60
2018-08-21T17:04:57.333Z,1.40
2018-08-21T17:07:25.205Z,1.70
2018-08-21T17:09:54.187Z,1.87
2018-08-21T17:12:22.055Z,1.97
2018-08-21T17:14:49.888Z,1.70
2018-08-21T17:17:18.428Z,1.33
2018-08-21T17:19:46.388Z,1.70
2018-08-21T17:22:14.310Z,1.60
2018-08-21T17:24:42.936Z,1.40
2018-08-21T17:27:11.477Z,1.40
2018-08-21T17:29:39.846Z,1.83
2018-08-21T17:32:07.793Z,2.13
2018-08-21T17:34:35.927Z,1.90
2018-08-21T17:37:03.771Z,2.10
2018-08-21T17:39:31.575Z,2.07
2018-08-21T17:41:59.285Z,2.50
2018-08-21T17:44:28.054Z,1.50
2018-08-21T17:46:55.837Z,1.63
2018-08-21T17:49:24.255Z,1.50
2018-08-21T17:51:52.884Z,1.27
2018-08-21T17:54:21.432Z,1.93
2018-08-21T17:56:49.284Z,1.40
2018-08-21T17:59:17.647Z,1.77
2018-08-21T18:01:45.688Z,1.77
2018-08-21T18:04:13.652Z,1.87
2018-08-21T18:06:42.756Z,2.00
2018-08-21T18:09:10.963Z,1.40
2018-08-21T18:11:39.466Z,1.67
2018-08-21T18:14:08.053Z,2.10
2018-08-21T18:16:35.838Z,2.53
2018-08-21T18:19:03.745Z,1.80
2018-08-21T18:21:31.589Z,1.83
2018-08-21T18:23:59.561Z,2.67
2018-08-21T18:26:28.170Z,2.20
2018-08-21T18:28:56.054Z,1.97
2018-08-21T18:31:24.669Z,1.63
2018-08-21T18:33:52.663Z,1.70
2018-08-21T18:36:20.641Z,1.30
2018-08-21T18:38:48.670Z,1.73
2018-08-21T18:41:17.258Z,1.70
2018-08-21T18:43:45.216Z,1.90
2018-08-21T18:46:13.220Z,1.87
2018-08-21T18:48:41.841Z,1.77
2018-08-21T18:51:09.727Z,1.43
2018-08-21T18:53:38.430Z,1.70
2018-08-21T18:56:06.326Z,2.53
2018-08-21T18:58:34.362Z,1.70
2018-08-21T19:01:02.260Z,1.90
2018-08-21T19:03:30.274Z,1.87
2018-08-21T19:05:59.190Z,1.70
2018-08-21T19:08:27.063Z,1.93
2018-08-21T19:10:57.799Z,2.30
2018-08-21T19:13:25.839Z,1.77
2018-08-21T19:15:53.839Z,2.03
2018-08-21T19:18:21.693Z,1.60
2018-08-21T19:20:49.840Z,1.70
2018-08-21T19:23:18.327Z,1.60
2018-08-21T19:25:46.736Z,2.00
2018-08-21T19:28:15.099Z,2.10
2018-08-21T19:30:42.902Z,1.73
2018-08-21T19:33:11.434Z,1.90
2018-08-21T19:35:39.467Z,1.50
2018-08-21T19:38:07.476Z,1.53
2018-08-21T19:40:35.588Z,1.83
2018-08-21T19:43:03.565Z,1.47
2018-08-21T19:45:32.469Z,1.60
2018-08-21T19:48:00.769Z,1.67
2018-08-21T19:50:28.849Z,1.53
2018-08-21T19:52:57.689Z,1.70
2018-08-21T19:55:26.287Z,1.67
2018-08-21T19:57:55.109Z,1.50
2018-08-21T20:00:23.131Z,1.57
2018-08-21T20:02:51.097Z,1.43
2018-08-21T20:05:19.419Z,1.57
2018-08-21T20:07:48.377Z,1.57
2018-08-21T20:10:16.931Z,1.60
2018-08-21T20:12:44.874Z,1.67
2018-08-21T20:15:12.887Z,1.90
2018-08-21T20:17:40.737Z,1.70
2018-08-21T20:20:08.950Z,1.50
2018-08-21T20:22:36.699Z,1.50
2018-08-21T20:25:05.369Z,1.60
2018-08-21T20:27:33.403Z,1.50
2018-08-21T20:30:01.229Z,1.83
2018-08-21T20:32:29.286Z,1.50
2018-08-21T20:34:57.879Z,2.00
2018-08-21T20:37:25.747Z,1.60
2018-08-21T20:39:53.706Z,1.53
2018-08-21T20:42:21.345Z,1.47
2018-08-21T20:44:49.674Z,2.33
2018-08-21T20:47:18.805Z,2.10
2018-08-21T20:49:46.709Z,2.20
2018-08-21T20:52:14.635Z,1.50
2018-08-21T20:54:42.451Z,1.80
2018-08-21T20:57:10.166Z,1.60
2018-08-21T20:59:38.177Z,2.07
2018-08-21T21:02:06.075Z,1.83
2018-08-21T21:04:33.840Z,1.83
2018-08-21T21:07:01.883Z,1.70
2018-08-21T21:09:29.801Z,1.53
2018-08-21T21:11:57.723Z,1.70
2018-08-21T21:14:30.687Z,1.60
2018-08-21T21:17:03.610Z,1.80
2018-08-21T21:19:36.838Z,2.30
2018-08-21T21:22:09.968Z,1.37
2018-08-21T21:24:43.111Z,1.50
2018-08-21T21:27:12.051Z,1.60
2018-08-21T21:29:39.925Z,1.70
2018-08-21T21:32:07.928Z,1.40
2018-08-21T21:34:36.458Z,1.70
2018-08-21T21:37:05.183Z,1.70
2018-08-21T21:39:33.143Z,1.23
2018-08-21T21:42:01.434Z,1.40
2018-08-21T21:44:29.987Z,1.60
2018-08-21T21:46:57.974Z,1.93
2018-08-21T21:49:27.433Z,1.13
2018-08-21T21:51:55.346Z,1.40
2018-08-21T21:54:23.033Z,1.80
2018-08-21T21:56:50.690Z,1.97
2018-08-21T21:59:19.309Z,1.63
2018-08-21T22:01:47.337Z,2.00
2018-08-21T22:04:15.343Z,1.40
2018-08-21T22:06:43.966Z,1.50
2018-08-21T22:09:11.821Z,1.70
2018-08-21T22:11:39.588Z,2.03
2018-08-21T22:14:07.605Z,2.20
2018-08-21T22:16:35.605Z,1.50
2018-08-21T22:19:04.082Z,1.50
2018-08-21T22:21:33.026Z,1.60
2018-08-21T22:24:01.227Z,1.97
2018-08-21T22:26:29.268Z,1.77
2018-08-21T22:28:57.081Z,1.60
